Time;durP1;ratioP1;P1;durP2;ratioP2;P2;SDS_P1;SDS_P2;PMS_P1;PMS_P2;Temp;Humidity;BMP_temperature;BMP_pressure;BME280_temperature;BME280_humidity;BME280_pressure;Samples;Min_cycle;Max_cycle;Signal;HPM_P1;HPM_P2
2022/06/24 00:02:13;;;;;;;13.40;3.95;;;15.60;82.30;;;;;;5090690;28;20017;-74
2022/06/24 00:04:40;;;;;;;7.57;3.00;;;15.60;82.20;;;;;;5088624;28;20050;-74
2022/06/24 00:07:16;;;;;;;8.88;3.05;;;15.70;82.10;;;;;;5088415;28;20073;-72
2022/06/24 00:09:44;;;;;;;11.68;2.78;;;15.60;82.00;;;;;;5089432;28;20470;-74
2022/06/24 00:12:14;;;;;;;13.55;3.13;;;15.60;82.00;;;;;;5088608;28;20020;-74
2022/06/24 00:14:45;;;;;;;7.40;3.75;;;15.60;82.10;;;;;;5089945;28;20459;-74
2022/06/24 00:17:14;;;;;;;12.10;3.03;;;15.60;82.00;;;;;;5091479;28;20545;-74
2022/06/24 00:20:01;;;;;;;16.33;3.47;;;15.60;82.20;;;;;;5085185;28;20023;-74
2022/06/24 00:22:30;;;;;;;14.02;4.30;;;15.60;82.00;;;;;;5087870;28;20024;-74
2022/06/24 00:25:17;;;;;;;10.00;3.47;;;15.60;82.60;;;;;;5087037;28;20288;-75
2022/06/24 00:28:11;;;;;;;16.75;3.97;;;15.60;81.70;;;;;;5104030;28;20546;-75
2022/06/24 00:30:39;;;;;;;14.48;3.90;;;15.60;81.60;;;;;;5090211;28;20499;-75
2022/06/24 00:33:15;;;;;;;12.23;4.82;;;15.50;81.60;;;;;;5087725;28;20036;-75
2022/06/24 00:35:45;;;;;;;;;;;15.50;81.60;;;;;;5087829;28;20471;-74
2022/06/24 00:38:24;;;;;;;11.20;3.42;;;15.50;81.80;;;;;;5087751;28;19990;-74
2022/06/24 00:41:12;;;;;;;12.40;3.88;;;15.50;81.80;;;;;;5091754;28;20020;-72
2022/06/24 00:43:44;;;;;;;11.52;3.63;;;15.50;81.70;;;;;;5087628;28;20119;-74
2022/06/24 00:46:14;;;;;;;18.55;3.17;;;15.50;81.60;;;;;;5091018;28;20506;-74
2022/06/24 00:48:46;;;;;;;8.65;2.85;;;15.50;81.70;;;;;;5089586;28;20024;-74
2022/06/24 00:51:13;;;;;;;13.02;3.28;;;15.50;81.90;;;;;;5087770;28;20047;-74
2022/06/24 00:53:50;;;;;;;11.98;2.85;;;15.50;81.80;;;;;;5088547;28;20119;-74
2022/06/24 00:56:20;;;;;;;12.85;4.53;;;15.50;82.40;;;;;;5088088;28;20058;-73
2022/06/24 00:59:05;;;;;;;9.65;4.68;;;15.50;81.80;;;;;;5086506;28;20550;-74
2022/06/24 01:01:37;;;;;;;11.50;3.42;;;15.50;81.80;;;;;;5089767;28;20103;-74
2022/06/24 01:04:09;;;;;;;16.25;3.53;;;15.40;81.60;;;;;;5083518;28;20032;-72
2022/06/24 01:06:38;;;;;;;10.50;3.13;;;15.50;81.60;;;;;;5089197;28;20020;-72
2022/06/24 01:09:07;;;;;;;15.55;3.97;;;15.50;81.60;;;;;;5089111;28;20020;-71
2022/06/24 01:11:35;;;;;;;16.65;3.88;;;15.40;81.50;;;;;;5089311;28;20020;-74
2022/06/24 01:14:02;;;;;;;14.85;2.42;;;15.40;81.60;;;;;;5089691;28;20028;-74
2022/06/24 01:16:29;;;;;;;21.10;3.85;;;15.40;81.70;;;;;;5089940;28;20058;-74
2022/06/24 01:19:08;;;;;;;14.80;3.15;;;15.40;82.00;;;;;;5088486;28;20024;-74
2022/06/24 01:21:36;;;;;;;15.13;4.13;;;15.40;82.50;;;;;;5086722;28;20054;-74
2022/06/24 01:24:15;;;;;;;9.90;3.20;;;15.40;83.00;;;;;;5090388;28;21456;-74
2022/06/24 01:26:45;;;;;;;22.25;3.78;;;15.40;83.10;;;;;;5088671;28;20009;-74
2022/06/24 01:29:12;;;;;;;14.65;3.75;;;15.40;83.40;;;;;;5088861;28;20024;-74
2022/06/24 01:31:40;;;;;;;16.02;3.22;;;15.50;82.40;;;;;;5089488;28;20058;-74
2022/06/24 01:34:08;;;;;;;16.02;3.25;;;15.50;82.20;;;;;;5088387;28;20390;-74
2022/06/24 01:36:35;;;;;;;12.35;3.53;;;15.50;81.50;;;;;;5088526;28;20016;-72
2022/06/24 01:39:04;;;;;;;12.95;2.97;;;15.40;81.40;;;;;;5090343;28;20028;-74
2022/06/24 01:41:31;;;;;;;14.38;2.70;;;15.50;81.70;;;;;;5090289;28;20024;-72
2022/06/24 01:43:58;;;;;;;11.15;3.85;;;15.40;81.50;;;;;;5085873;28;20047;-74
2022/06/24 01:46:25;;;;;;;13.98;3.17;;;15.40;81.40;;;;;;5087517;28;20047;-74
2022/06/24 01:48:51;;;;;;;11.95;3.20;;;15.40;81.30;;;;;;5089823;28;20024;-72
2022/06/24 01:51:20;;;;;;;13.65;2.72;;;15.40;81.30;;;;;;5091575;28;20107;-71
2022/06/24 01:53:47;;;;;;;9.80;3.28;;;15.40;81.30;;;;;;5093036;28;20117;-72
2022/06/24 01:56:13;;;;;;;13.55;3.47;;;15.40;81.20;;;;;;5090650;28;20016;-71
2022/06/24 01:58:40;;;;;;;13.80;3.78;;;15.30;81.20;;;;;;5092610;28;20016;-74
2022/06/24 02:01:06;;;;;;;13.88;4.40;;;15.30;81.20;;;;;;5090970;28;20027;-73
2022/06/24 02:03:39;;;;;;;12.50;3.80;;;15.30;81.10;;;;;;5091461;28;20024;-74
2022/06/24 02:06:08;;;;;;;10.15;2.35;;;15.30;81.20;;;;;;5093179;28;20055;-73
2022/06/24 02:08:35;;;;;;;12.48;3.45;;;15.30;81.40;;;;;;5091198;28;20065;-72
2022/06/24 02:13:49;;;;;;;12.23;2.97;;;15.30;81.60;;;;;;5090312;28;20435;-73
2022/06/24 02:16:18;;;;;;;14.43;4.00;;;15.20;81.60;;;;;;5092248;28;20495;-73
2022/06/24 02:18:46;;;;;;;10.23;3.47;;;15.30;81.60;;;;;;5092516;28;20425;-74
2022/06/24 02:21:12;;;;;;;19.73;3.25;;;15.30;81.60;;;;;;5090820;28;20479;-74
2022/06/24 02:23:39;;;;;;;11.18;2.67;;;15.30;81.60;;;;;;5091772;28;20081;-74
2022/06/24 02:26:06;;;;;;;13.02;2.92;;;15.30;81.60;;;;;;5091139;28;20016;-76
2022/06/24 02:28:32;;;;;;;15.07;3.10;;;15.30;81.60;;;;;;5092808;28;20024;-76
2022/06/24 02:31:00;;;;;;;8.23;2.67;;;15.20;81.50;;;;;;5090451;28;20454;-75
2022/06/24 02:33:28;;;;;;;11.27;2.92;;;15.20;81.50;;;;;;5091505;28;20069;-75
2022/06/24 02:35:55;;;;;;;12.63;3.00;;;15.20;81.50;;;;;;5092070;28;20045;-75
2022/06/24 02:38:21;;;;;;;12.80;3.30;;;15.20;81.50;;;;;;5092294;28;20085;-73
2022/06/24 02:40:48;;;;;;;10.82;2.90;;;15.20;81.50;;;;;;5090987;28;20390;-74
2022/06/24 02:43:19;;;;;;;14.35;3.08;;;15.20;82.20;;;;;;5088929;28;20379;-73
2022/06/24 02:45:50;;;;;;;12.35;3.42;;;15.20;81.60;;;;;;5093611;28;20042;-73
2022/06/24 02:48:18;;;;;;;16.90;3.30;;;15.30;81.70;;;;;;5089743;28;20598;-73
2022/06/24 02:50:47;;;;;;;15.57;3.22;;;15.20;81.70;;;;;;5090817;28;20031;-73
2022/06/24 02:53:53;;;;;;;23.50;4.40;;;15.30;81.90;;;;;;5091598;28;20016;-74
2022/06/24 02:56:19;;;;;;;25.75;10.23;;;15.30;82.30;;;;;;5088865;28;20907;-74
2022/06/24 02:58:46;;;;;;;34.33;19.52;;;15.30;82.70;;;;;;5090988;28;20108;-73
2022/06/24 03:01:13;;;;;;;25.55;12.63;;;15.30;82.90;;;;;;5090306;28;20016;-73
2022/06/24 03:03:39;;;;;;;24.77;8.15;;;15.30;83.30;;;;;;5091626;28;20944;-73
2022/06/24 03:06:06;;;;;;;19.10;6.38;;;15.40;83.70;;;;;;5092209;28;20012;-74
2022/06/24 03:08:33;;;;;;;19.98;5.22;;;15.40;83.90;;;;;;5092609;28;20113;-71
2022/06/24 03:11:00;;;;;;;33.05;5.95;;;15.40;83.60;;;;;;5091594;28;20096;-74
2022/06/24 03:13:28;;;;;;;15.82;4.63;;;15.40;83.30;;;;;;5089616;28;20889;-73
2022/06/24 03:15:54;;;;;;;10.73;3.90;;;15.40;83.00;;;;;;5091503;28;20027;-75
2022/06/24 03:18:21;;;;;;;21.80;5.07;;;15.40;82.80;;;;;;5089503;28;20016;-74
2022/06/24 03:20:47;;;;;;;10.15;4.45;;;15.30;82.40;;;;;;5091936;28;20517;-74
2022/06/24 03:23:15;;;;;;;12.30;4.32;;;15.30;82.40;;;;;;5088756;28;20023;-74
2022/06/24 03:25:42;;;;;;;26.92;4.93;;;15.30;82.50;;;;;;5093980;28;20119;-74
2022/06/24 03:28:09;;;;;;;10.75;3.13;;;15.30;82.70;;;;;;5090392;28;20474;-74
2022/06/24 03:30:35;;;;;;;13.18;3.65;;;15.30;82.70;;;;;;5089256;28;20032;-74
2022/06/24 03:33:02;;;;;;;13.68;3.92;;;15.30;82.70;;;;;;5109305;27;20016;-74
2022/06/24 03:35:29;;;;;;;22.42;3.97;;;15.30;82.90;;;;;;5089056;28;20087;-74
2022/06/24 03:38:35;;;;;;;15.95;3.85;;;15.30;83.10;;;;;;5091357;28;20054;-74
2022/06/24 03:41:41;;;;;;;28.48;3.70;;;15.30;83.10;;;;;;5089450;28;20101;-74
2022/06/24 03:44:47;;;;;;;6.72;2.95;;;15.30;82.50;;;;;;5093910;28;20039;-74
2022/06/24 03:47:53;;;;;;;27.02;4.13;;;15.30;82.10;;;;;;5087061;28;20025;-74
2022/06/24 03:50:59;;;;;;;22.90;7.47;;;15.30;81.20;;;;;;5090670;28;20028;-73
2022/06/24 03:54:05;;;;;;;31.55;19.80;;;15.30;80.80;;;;;;5089278;28;20024;-74
2022/06/24 03:57:11;;;;;;;23.58;10.45;;;15.30;80.70;;;;;;5089027;28;20102;-74
2022/06/24 03:59:38;;;;;;;12.30;4.95;;;15.20;80.40;;;;;;5091109;28;20070;-73
2022/06/24 04:02:05;;;;;;;12.88;4.97;;;15.30;81.10;;;;;;5087914;28;20085;-73
2022/06/24 04:04:31;;;;;;;8.25;3.53;;;15.30;80.90;;;;;;5089419;28;20036;-73
2022/06/24 04:06:58;;;;;;;13.68;3.60;;;15.20;80.60;;;;;;5090364;28;20028;-72
2022/06/24 04:09:24;;;;;;;7.82;2.45;;;15.20;80.90;;;;;;5089948;28;20091;-73
2022/06/24 04:12:30;;;;;;;9.82;3.10;;;15.20;80.00;;;;;;5090054;28;20026;-75
2022/06/24 04:15:36;;;;;;;17.00;2.70;;;15.20;79.70;;;;;;5087355;28;20105;-74
2022/06/24 04:18:42;;;;;;;11.82;2.47;;;15.20;79.50;;;;;;5089472;28;20564;-73
2022/06/24 04:21:51;;;;;;;12.13;2.55;;;15.10;79.50;;;;;;5089138;28;20812;-74
2022/06/24 04:24:57;;;;;;;11.45;2.15;;;15.10;79.50;;;;;;5089011;28;20101;-73
2022/06/24 04:28:04;;;;;;;9.30;2.75;;;15.10;79.40;;;;;;5087363;28;20024;-73
2022/06/24 04:30:50;;;;;;;;;;;15.10;79.40;;;;;;5088444;28;20024;-73
2022/06/24 04:33:59;;;;;;;9.67;3.37;;;15.10;79.50;;;;;;5089458;28;20602;-75
2022/06/24 04:36:42;;;;;;;8.52;3.17;;;15.10;79.60;;;;;;5087465;28;20028;-74
2022/06/24 04:39:09;;;;;;;8.65;3.22;;;15.10;79.60;;;;;;5068502;28;20028;-72
2022/06/24 04:41:35;;;;;;;13.55;2.55;;;15.10;79.40;;;;;;5087074;28;20118;-73
2022/06/24 04:44:02;;;;;;;7.20;2.17;;;15.10;79.50;;;;;;5092058;28;20093;-72
2022/06/24 04:46:28;;;;;;;14.73;3.60;;;15.10;79.50;;;;;;5089617;28;20106;-74
2022/06/24 04:49:39;;;;;;;11.30;2.67;;;15.10;79.40;;;;;;5087709;28;20029;-73
2022/06/24 04:52:06;;;;;;;22.20;2.92;;;15.10;79.30;;;;;;5087607;28;20031;-72
2022/06/24 04:54:33;;;;;;;9.25;2.30;;;15.10;79.10;;;;;;5088182;28;20070;-71
2022/06/24 04:56:59;;;;;;;12.98;2.75;;;15.10;79.00;;;;;;5090019;28;20016;-72
2022/06/24 04:59:26;;;;;;;9.75;2.00;;;15.10;79.00;;;;;;5088610;28;20059;-74
2022/06/24 05:01:52;;;;;;;10.18;2.78;;;15.10;79.00;;;;;;5088588;28;20024;-73
2022/06/24 05:04:19;;;;;;;11.27;2.13;;;15.10;78.50;;;;;;5086989;28;20077;-74
2022/06/24 05:06:49;;;;;;;7.50;2.28;;;15.10;78.80;;;;;;5087072;28;20023;-73
2022/06/24 05:09:16;;;;;;;9.27;1.58;;;15.00;77.90;;;;;;5089032;28;20088;-72
2022/06/24 05:11:51;;;;;;;8.57;2.70;;;15.00;77.80;;;;;;5087422;28;20016;-71
2022/06/24 05:14:18;;;;;;;7.47;2.30;;;15.00;77.80;;;;;;5088426;28;20062;-72
2022/06/24 05:16:44;;;;;;;10.38;2.22;;;15.00;77.60;;;;;;5086872;28;20520;-73
2022/06/24 05:19:11;;;;;;;12.65;2.17;;;15.00;77.50;;;;;;5088465;28;20833;-72
2022/06/24 05:21:38;;;;;;;7.78;2.65;;;15.00;77.30;;;;;;5084712;28;20107;-73
2022/06/24 05:24:05;;;;;;;13.38;2.13;;;15.00;77.10;;;;;;5092808;28;20028;-72
2022/06/24 05:26:31;;;;;;;8.73;3.08;;;14.90;77.00;;;;;;5090045;28;20099;-74
2022/06/24 05:29:37;;;;;;;12.90;2.75;;;14.90;77.00;;;;;;5091525;28;20024;-73
2022/06/24 05:32:10;;;;;;;11.02;1.90;;;14.90;77.10;;;;;;5093482;28;20023;-71
2022/06/24 05:34:38;;;;;;;18.60;3.08;;;15.00;77.50;;;;;;5090018;28;20096;-70
2022/06/24 05:37:05;;;;;;;13.13;3.40;;;14.90;77.50;;;;;;5090981;28;20036;-72
2022/06/24 05:39:31;;;;;;;6.15;1.88;;;14.90;77.70;;;;;;5091837;28;20102;-73
2022/06/24 05:41:58;;;;;;;6.30;1.75;;;14.90;77.70;;;;;;5092218;28;20074;-71
2022/06/24 05:44:24;;;;;;;10.98;1.98;;;14.90;77.70;;;;;;5094444;28;20043;-72
2022/06/24 05:46:53;;;;;;;9.60;2.33;;;14.90;77.50;;;;;;5090243;28;20099;-73
2022/06/24 05:49:19;;;;;;;9.48;2.65;;;14.90;77.30;;;;;;5092461;28;20030;-73
2022/06/24 05:51:46;;;;;;;19.67;3.65;;;14.90;77.20;;;;;;5088912;28;20475;-73
2022/06/24 05:56:57;;;;;;;5.65;2.05;;;14.90;77.10;;;;;;5090264;28;20035;-71
2022/06/24 05:59:24;;;;;;;10.20;3.20;;;14.90;77.00;;;;;;5096373;28;20059;-71
2022/06/24 06:01:50;;;;;;;6.78;2.58;;;14.90;77.10;;;;;;5092556;28;20551;-71
2022/06/24 06:04:17;;;;;;;12.80;2.17;;;14.90;76.90;;;;;;5093376;28;20032;-72
2022/06/24 06:06:43;;;;;;;12.23;2.88;;;14.90;76.70;;;;;;5089322;28;20358;-71
2022/06/24 08:22:24;;;;;;;6.63;2.42;;;14.70;80.40;;;;;;5101924;27;20426;-73
2022/06/24 08:24:50;;;;;;;10.25;3.25;;;15.20;79.30;;;;;;5082923;28;20131;-73
2022/06/24 08:27:16;;;;;;;14.10;2.65;;;15.20;78.90;;;;;;5084785;28;20025;-73
2022/06/24 08:29:43;;;;;;;30.92;4.88;;;15.30;78.70;;;;;;5087149;28;20074;-72
2022/06/24 08:32:09;;;;;;;9.77;2.85;;;15.30;78.10;;;;;;5090585;28;20031;-73
2022/06/24 08:34:36;;;;;;;8.45;2.90;;;15.40;78.00;;;;;;5084870;28;20483;-73
2022/06/24 08:37:02;;;;;;;4.10;2.28;;;15.40;77.80;;;;;;5083101;28;20495;-73
2022/06/24 08:39:29;;;;;;;8.52;2.63;;;15.50;77.70;;;;;;5084704;28;20065;-73
2022/06/24 08:41:58;;;;;;;13.88;2.75;;;15.50;77.30;;;;;;5083199;28;20044;-74
2022/06/24 08:44:26;;;;;;;7.70;2.22;;;15.50;76.70;;;;;;5080419;28;20017;-71
2022/06/24 08:46:52;;;;;;;2.95;1.98;;;15.60;76.60;;;;;;5085206;28;20032;-72
2022/06/24 08:49:19;;;;;;;5.85;2.47;;;15.60;76.60;;;;;;5082316;28;20094;-72
2022/06/24 08:51:47;;;;;;;5.50;1.63;;;15.70;76.70;;;;;;5083341;28;20012;-79
2022/06/24 08:54:17;;;;;;;7.55;1.50;;;15.70;76.40;;;;;;5083540;28;20032;-72
2022/06/24 08:56:44;;;;;;;6.47;2.33;;;15.80;76.30;;;;;;5085716;28;20019;-76
2022/06/24 08:59:11;;;;;;;8.35;2.08;;;15.80;75.90;;;;;;5087809;28;20080;-74
2022/06/24 09:01:43;;;;;;;7.75;1.38;;;15.80;75.40;;;;;;5081855;28;20108;-73
2022/06/24 09:04:10;;;;;;;6.40;1.88;;;15.90;75.30;;;;;;5091915;28;20094;-74
2022/06/24 09:06:38;;;;;;;3.22;1.33;;;15.90;75.20;;;;;;5084229;28;20042;-74
2022/06/24 09:09:05;;;;;;;9.30;2.15;;;15.90;75.00;;;;;;5082579;28;20113;-73
2022/06/24 09:11:42;;;;;;;14.40;2.90;;;15.90;74.60;;;;;;5081945;28;20493;-72
2022/06/24 09:14:10;;;;;;;8.10;3.13;;;16.00;74.90;;;;;;5087237;28;20522;-72
2022/06/24 09:16:38;;;;;;;13.77;3.20;;;16.00;75.20;;;;;;5081768;28;20107;-72
2022/06/24 09:19:06;;;;;;;3.47;2.20;;;16.00;75.50;;;;;;5084357;28;20009;-71
2022/06/24 09:21:41;;;;;;;16.92;2.88;;;16.10;75.50;;;;;;5072788;28;20653;-71
2022/06/24 09:24:09;;;;;;;3.53;1.80;;;16.10;75.20;;;;;;5070600;28;20024;-71
2022/06/24 09:26:37;;;;;;;4.60;1.15;;;16.10;74.80;;;;;;5070431;28;20040;-72
2022/06/24 09:29:26;;;;;;;7.25;1.17;;;16.20;74.50;;;;;;5071835;28;20043;-72
2022/06/24 09:32:03;;;;;;;5.57;1.25;;;16.20;73.70;;;;;;5072190;28;20032;-71
2022/06/24 09:34:29;;;;;;;7.00;1.48;;;16.30;73.30;;;;;;5070758;28;20052;-71
2022/06/24 09:36:55;;;;;;;8.57;1.52;;;16.30;72.90;;;;;;5072788;28;20087;-72
2022/06/24 09:39:22;;;;;;;6.57;1.17;;;16.30;72.80;;;;;;5070421;28;20352;-71
2022/06/24 09:41:54;;;;;;;4.53;1.35;;;16.40;72.80;;;;;;5071620;28;20060;-71
2022/06/24 09:44:21;;;;;;;2.88;1.08;;;16.40;72.80;;;;;;5068633;28;20025;-71
2022/06/24 09:47:00;;;;;;;7.18;1.25;;;16.50;72.80;;;;;;5070097;28;20036;-70
2022/06/24 09:49:28;;;;;;;7.05;1.15;;;16.50;72.70;;;;;;5068271;28;20376;-71
2022/06/24 09:51:55;;;;;;;4.75;1.15;;;16.60;72.70;;;;;;5066212;28;20021;-70
2022/06/24 09:54:22;;;;;;;5.55;1.33;;;16.70;72.80;;;;;;5071314;28;20029;-70
2022/06/24 09:56:49;;;;;;;2.63;1.10;;;16.70;72.90;;;;;;5071965;28;20027;-70
2022/06/24 10:02:02;;;;;;;7.30;1.25;;;16.80;72.70;;;;;;5068865;28;20140;-70
2022/06/24 10:04:29;;;;;;;5.15;1.35;;;16.90;72.60;;;;;;5070490;28;20412;-70
2022/06/24 10:06:57;;;;;;;13.52;1.80;;;16.90;72.10;;;;;;5069330;28;20115;-71
2022/06/24 10:09:26;;;;;;;6.28;1.92;;;16.90;72.20;;;;;;5070495;28;20052;-72
2022/06/24 10:11:56;;;;;;;10.05;1.70;;;17.00;72.10;;;;;;5066573;28;20043;-73
2022/06/24 10:14:24;;;;;;;6.88;1.95;;;17.00;72.10;;;;;;5070180;28;20031;-73
2022/06/24 10:16:51;;;;;;;2.75;1.25;;;17.00;71.90;;;;;;5063455;28;20036;-73
2022/06/24 10:19:19;;;;;;;3.42;1.60;;;17.10;71.60;;;;;;5068748;28;20072;-73
2022/06/24 10:21:48;;;;;;;8.20;1.73;;;17.10;71.50;;;;;;5069751;28;20099;-72
2022/06/24 10:24:17;;;;;;;5.40;1.45;;;17.10;70.50;;;;;;5065329;28;20056;-71
2022/06/24 10:26:48;;;;;;;8.95;1.90;;;17.20;70.60;;;;;;5066789;28;20016;-72
2022/06/24 10:29:15;;;;;;;2.90;1.25;;;17.20;70.50;;;;;;5067400;28;20033;-73
2022/06/24 10:31:52;;;;;;;3.70;1.42;;;17.30;70.40;;;;;;5074010;28;20066;-71
2022/06/24 10:34:30;;;;;;;1.40;0.80;;;17.30;69.80;;;;;;5061719;28;20036;-72
2022/06/24 10:37:10;;;;;;;3.92;1.33;;;17.30;69.70;;;;;;5064485;28;20021;-73
2022/06/24 10:39:54;;;;;;;2.83;1.15;;;17.40;69.70;;;;;;5069100;28;20434;-74
2022/06/24 10:42:21;;;;;;;5.57;1.88;;;17.40;69.20;;;;;;5066473;28;20024;-73
2022/06/24 10:44:58;;;;;;;5.18;2.15;;;17.50;68.90;;;;;;5064450;28;20052;-73
2022/06/24 10:47:30;;;;;;;7.63;1.40;;;17.50;68.50;;;;;;5060399;28;20029;-72
2022/06/24 10:50:02;;;;;;;4.93;1.25;;;17.50;68.50;;;;;;5069350;28;20025;-72
2022/06/24 10:52:47;;;;;;;5.57;0.95;;;17.60;68.50;;;;;;5066842;28;20135;-73
2022/06/24 10:55:17;;;;;;;7.95;1.60;;;17.60;68.30;;;;;;5064353;28;20471;-73
2022/06/24 10:57:45;;;;;;;3.45;1.38;;;17.60;68.20;;;;;;5061137;28;20453;-72
2022/06/24 11:00:14;;;;;;;8.88;1.55;;;17.70;67.90;;;;;;5070769;28;20390;-72
2022/06/24 11:02:42;;;;;;;3.92;1.30;;;17.70;67.70;;;;;;5063151;28;20028;-72
2022/06/24 11:05:15;;;;;;;7.60;1.75;;;17.70;67.50;;;;;;5066832;28;20422;-73
2022/06/24 11:07:49;;;;;;;5.15;1.25;;;17.80;67.50;;;;;;5063927;28;20063;-71
2022/06/24 11:10:27;;;;;;;5.65;1.88;;;17.90;67.30;;;;;;5069277;28;20039;-72
2022/06/24 11:12:58;;;;;;;14.27;1.50;;;17.80;66.90;;;;;;5069191;28;20024;-73
2022/06/24 11:15:45;;;;;;;10.00;4.15;;;17.90;66.70;;;;;;5067468;28;20031;-73
2022/06/24 11:18:38;;;;;;;5.97;1.40;;;18.00;66.60;;;;;;5068235;28;20023;-72
2022/06/24 11:21:09;;;;;;;5.18;1.23;;;18.00;66.60;;;;;;5062895;28;20048;-71
2022/06/24 11:23:40;;;;;;;3.33;1.50;;;18.00;66.40;;;;;;5065277;28;20028;-72
2022/06/24 11:26:12;;;;;;;3.33;1.17;;;18.10;66.30;;;;;;5065185;28;20029;-72
2022/06/24 11:28:39;;;;;;;6.20;1.48;;;18.10;66.30;;;;;;5069583;28;20366;-73
2022/06/24 11:31:38;;;;;;;7.80;1.20;;;18.10;66.00;;;;;;5072578;28;20024;-73
2022/06/24 11:34:08;;;;;;;4.82;0.93;;;18.20;66.40;;;;;;5027736;28;20060;-71
2022/06/24 11:36:36;;;;;;;6.90;1.85;;;18.30;66.30;;;;;;5069448;28;20012;-72
2022/06/24 11:39:10;;;;;;;4.25;1.60;;;18.30;66.00;;;;;;5069158;28;20031;-72
2022/06/24 11:41:45;;;;;;;6.45;1.20;;;18.40;66.10;;;;;;5066596;28;20024;-73
2022/06/24 11:44:13;;;;;;;5.45;2.05;;;18.40;66.00;;;;;;5066193;28;20063;-72
2022/06/24 11:46:39;;;;;;;7.70;1.90;;;18.40;65.80;;;;;;5069116;28;20040;-71
2022/06/24 11:49:06;;;;;;;5.43;1.10;;;18.50;65.70;;;;;;5070801;28;20093;-72
2022/06/24 11:51:32;;;;;;;5.60;1.50;;;18.50;65.40;;;;;;5062239;28;20091;-72
2022/06/24 11:54:04;;;;;;;2.22;1.35;;;18.60;65.10;;;;;;5073222;28;20028;-72
2022/06/24 11:56:38;;;;;;;6.95;1.95;;;18.60;64.60;;;;;;5060702;28;20074;-73
2022/06/24 11:59:06;;;;;;;2.20;1.77;;;18.60;64.50;;;;;;5069347;28;20025;-73
2022/06/24 12:01:34;;;;;;;4.30;1.63;;;18.60;64.30;;;;;;5061829;28;20032;-72
2022/06/24 12:04:05;;;;;;;6.22;1.23;;;18.60;64.40;;;;;;5066109;28;20091;-73
2022/06/24 12:06:33;;;;;;;5.35;1.75;;;18.70;64.20;;;;;;5063343;28;20028;-73
2022/06/24 12:09:02;;;;;;;5.75;1.55;;;18.70;64.10;;;;;;5067427;28;20044;-71
2022/06/24 12:11:29;;;;;;;1.65;1.23;;;18.70;64.40;;;;;;5069645;28;20029;-72
2022/06/24 12:13:59;;;;;;;3.22;1.42;;;18.80;65.20;;;;;;5069996;28;20025;-71
2022/06/24 12:16:27;;;;;;;6.53;1.70;;;18.80;64.60;;;;;;5067111;28;20410;-71
2022/06/24 12:18:54;;;;;;;4.80;1.23;;;18.80;65.70;;;;;;5065108;28;20526;-72
2022/06/24 12:21:30;;;;;;;5.85;1.20;;;18.80;65.30;;;;;;5067280;28;20036;-72
2022/06/24 12:23:56;;;;;;;5.22;1.50;;;18.90;65.90;;;;;;5066775;28;20036;-74
2022/06/24 12:26:26;;;;;;;4.70;1.25;;;18.80;65.80;;;;;;5064717;28;20048;-74
2022/06/24 12:29:03;;;;;;;8.48;1.67;;;18.80;66.10;;;;;;5065344;28;20035;-73
2022/06/24 12:31:32;;;;;;;4.50;1.20;;;18.90;66.40;;;;;;5072168;28;20499;-73
2022/06/24 12:33:59;;;;;;;9.32;2.00;;;18.90;66.30;;;;;;5061435;28;20115;-72
2022/06/24 12:36:36;;;;;;;5.20;1.33;;;18.90;66.40;;;;;;5066929;28;20027;-72
2022/06/24 12:39:08;;;;;;;9.00;1.83;;;18.90;66.30;;;;;;5065168;28;20070;-72
2022/06/24 12:41:48;;;;;;;10.45;1.90;;;18.90;66.30;;;;;;5066413;28;20095;-72
2022/06/24 12:44:16;;;;;;;6.65;1.30;;;18.90;65.90;;;;;;5061962;28;20029;-71
2022/06/24 12:52:32;;;;;;;6.78;1.95;;;18.90;65.70;;;;;;5067043;28;20430;-72
2022/06/24 12:54:58;;;;;;;6.40;1.92;;;18.90;65.80;;;;;;5060893;28;20182;-72
2022/06/24 12:57:25;;;;;;;7.68;1.70;;;18.90;65.70;;;;;;5064060;28;20059;-72
2022/06/24 12:59:53;;;;;;;6.60;1.90;;;18.90;65.80;;;;;;5073635;28;20021;-71
2022/06/24 13:02:20;;;;;;;7.18;1.38;;;18.90;65.60;;;;;;5071596;28;20013;-71
2022/06/24 13:04:47;;;;;;;6.13;1.30;;;18.90;65.20;;;;;;5069064;28;20043;-73
2022/06/24 13:07:13;;;;;;;5.60;1.90;;;18.90;65.20;;;;;;5064465;28;20049;-71
2022/06/24 13:09:40;;;;;;;5.20;2.60;;;18.90;65.30;;;;;;5069879;28;20403;-72
2022/06/24 13:12:07;;;;;;;6.45;2.08;;;18.90;65.40;;;;;;5071825;28;20017;-71
2022/06/24 13:14:35;;;;;;;4.50;1.92;;;18.90;65.50;;;;;;5070685;28;20549;-72
2022/06/24 13:17:02;;;;;;;5.90;1.63;;;18.90;65.50;;;;;;5072219;28;20040;-71
2022/06/24 13:19:28;;;;;;;6.85;2.65;;;18.90;65.70;;;;;;5068137;28;20059;-71
2022/06/24 13:21:55;;;;;;;8.63;2.00;;;18.90;66.20;;;;;;5069116;28;20052;-71
2022/06/24 13:24:21;;;;;;;8.75;1.83;;;18.90;66.30;;;;;;5068701;28;20013;-72
2022/06/24 13:26:48;;;;;;;4.47;2.25;;;18.90;66.50;;;;;;5070812;28;20626;-71
2022/06/24 13:29:15;;;;;;;8.13;1.92;;;18.90;66.70;;;;;;5069146;28;20383;-71
2022/06/24 13:31:42;;;;;;;3.45;1.67;;;18.90;66.80;;;;;;5074592;28;20487;-72
2022/06/24 13:34:08;;;;;;;5.07;2.45;;;18.90;66.70;;;;;;5069322;28;20082;-72
2022/06/24 13:36:34;;;;;;;7.47;1.88;;;18.90;66.70;;;;;;5067775;28;20016;-72
2022/06/24 13:39:01;;;;;;;4.75;1.77;;;18.90;66.60;;;;;;5065539;28;20056;-71
2022/06/24 13:41:28;;;;;;;12.82;3.58;;;18.90;66.90;;;;;;5071286;28;20052;-72
2022/06/24 13:43:54;;;;;;;6.55;2.95;;;18.80;66.80;;;;;;5067989;28;20021;-71
2022/06/24 13:46:21;;;;;;;10.52;2.25;;;18.80;67.00;;;;;;5064634;28;20031;-71
2022/06/24 13:48:47;;;;;;;6.57;2.40;;;18.80;67.30;;;;;;5067574;28;20081;-71
2022/06/24 13:51:14;;;;;;;6.72;2.28;;;18.80;67.30;;;;;;5072408;28;20063;-71
2022/06/24 13:53:40;;;;;;;12.70;2.85;;;18.80;67.50;;;;;;5069329;28;20453;-72
2022/06/24 13:56:07;;;;;;;10.77;1.77;;;18.80;67.80;;;;;;5067368;28;20072;-71
2022/06/24 13:58:36;;;;;;;19.30;2.33;;;18.70;68.40;;;;;;5070261;28;20111;-74
2022/06/24 14:01:03;;;;;;;12.95;3.72;;;18.70;68.50;;;;;;5066311;28;20024;-71
2022/06/24 16:31:18;;;;;;;23.50;8.07;;;16.70;74.20;;;;;;5135850;27;20466;-79
2022/06/24 16:33:46;;;;;;;15.75;6.22;;;16.90;75.30;;;;;;5118704;27;20053;-75
2022/06/24 16:36:15;;;;;;;19.25;5.88;;;16.90;75.30;;;;;;5123242;27;20043;-76
2022/06/24 16:38:43;;;;;;;16.60;6.53;;;17.00;75.40;;;;;;5127902;27;20034;-74
2022/06/24 16:41:10;;;;;;;12.95;4.68;;;17.00;75.20;;;;;;5115852;27;20024;-71
2022/06/24 16:43:37;;;;;;;10.23;5.55;;;17.00;75.00;;;;;;5126610;27;20027;-74
2022/06/24 16:46:07;;;;;;;12.13;5.13;;;17.00;75.00;;;;;;5121930;27;20480;-76
2022/06/24 16:48:38;;;;;;;24.65;8.35;;;17.00;75.00;;;;;;5124729;27;20047;-74
2022/06/24 16:51:07;;;;;;;18.90;9.50;;;17.00;75.10;;;;;;5124092;27;20022;-74
2022/06/24 16:53:35;;;;;;;21.40;10.30;;;17.00;75.20;;;;;;5122703;27;20019;-75
2022/06/24 16:56:04;;;;;;;20.02;9.68;;;17.00;75.30;;;;;;5126081;27;20066;-76
2022/06/24 16:58:31;;;;;;;16.10;7.90;;;17.00;75.50;;;;;;5118247;27;20042;-74
2022/06/24 17:00:59;;;;;;;17.88;8.50;;;17.00;75.60;;;;;;5122525;27;20015;-75
2022/06/24 17:03:26;;;;;;;17.90;10.60;;;17.00;75.70;;;;;;5122671;27;21096;-74
2022/06/24 17:05:58;;;;;;;18.10;11.93;;;17.00;75.80;;;;;;5107108;27;20023;-75
2022/06/24 17:08:25;;;;;;;15.23;9.93;;;17.00;75.90;;;;;;5125717;27;20095;-76
2022/06/24 17:10:52;;;;;;;14.10;8.05;;;16.90;75.90;;;;;;5121871;27;20195;-72
2022/06/24 17:13:19;;;;;;;16.15;8.98;;;16.90;76.00;;;;;;5124569;27;20015;-72
2022/06/24 17:15:46;;;;;;;24.02;9.23;;;16.90;76.20;;;;;;5123936;27;20019;-73
2022/06/24 17:18:13;;;;;;;21.80;10.00;;;16.90;76.30;;;;;;5126604;27;20035;-74
2022/06/24 17:20:41;;;;;;;13.13;8.23;;;16.90;76.50;;;;;;5123246;27;20030;-74
2022/06/24 17:23:08;;;;;;;19.42;9.02;;;16.80;76.60;;;;;;5116761;27;20055;-72
2022/06/24 17:25:34;;;;;;;13.68;8.20;;;16.80;76.80;;;;;;5120970;27;20019;-73
2022/06/24 17:28:02;;;;;;;19.40;8.57;;;16.80;76.80;;;;;;5102926;27;20374;-73
2022/06/24 17:30:29;;;;;;;21.30;7.75;;;16.80;76.80;;;;;;5107372;27;20031;-74
2022/06/24 17:33:02;;;;;;;10.77;6.88;;;16.80;76.90;;;;;;5106853;27;20035;-76
2022/06/24 17:35:30;;;;;;;16.17;7.28;;;16.80;77.00;;;;;;5100976;28;20019;-76
2022/06/24 17:37:57;;;;;;;16.95;7.72;;;16.80;77.10;;;;;;5101593;27;20115;-74
2022/06/24 17:40:24;;;;;;;11.50;7.65;;;16.80;77.20;;;;;;5087988;28;20024;-73
2022/06/24 17:42:50;;;;;;;17.40;8.48;;;16.70;77.30;;;;;;5102329;27;20020;-73
2022/06/24 17:45:17;;;;;;;20.50;10.68;;;16.70;77.30;;;;;;5103840;27;20092;-74
2022/06/24 17:47:44;;;;;;;22.30;10.80;;;16.70;77.40;;;;;;5104311;27;20043;-74
2022/06/24 17:50:20;;;;;;;29.98;17.10;;;16.70;77.60;;;;;;5101163;27;20381;-74
2022/06/24 17:52:49;;;;;;;44.15;28.52;;;16.70;78.00;;;;;;5105435;27;20027;-73
2022/06/24 17:55:25;;;;;;;31.80;21.45;;;16.70;78.60;;;;;;5084435;27;20035;-73
2022/06/24 17:57:51;;;;;;;26.55;18.73;;;16.70;78.50;;;;;;5107401;27;20061;-73